Pays
Station

 

Conditions  météo  pour  Nausori  -  Fidji    Fidji

  
24 °C
    
 
 

METAR pour Nausori :

NFNA 191100Z 00000KT 9999 FEW014CB SCT018 BKN048 24/24 Q1015

 

Voici le bulletin pour Nausori - Fidji.
 
Le bulletin a été fait il y a 27 minutes, à 11:00 UTC .
Le vent était calme.
 
La température était de 24 °C, avec un point de rosée à 24 °C.
La température ressentie était de 22 °C.
 
La pression atmosphérique était de 1015 hPa.
L'humidité relative était de 100.0%.
 
Il y avait 1 à 2/8ème cumulonimbus de nébulosité à une hauteur de 427 mètres, 3 à 4/8ème de nébulosité à une hauteur de 549 mètres et 5 à 7/8ème de nébulosité à une hauteur de 1463 mètres.
 
La visibilité globale était de supérieure à 10 kilomètres.
 

 
 
 

Pays :   A   B   C   D   E   F   G   H   I   J   K   L   M   N   O   P   Q   R   S   T   U   V   W   Y   Z

 

Partenaires :  Info Météo avec Met'info
Météo Marine avec MeteoMarine.net
Infos Site  |  Infos Légales  |  Crédits  |  Confidentialité
Contactez-nous  |  Ajouter aux favoris
© 2013-2018 METAR - Tous droits réservés